TKJ3QP LTAC-LTCV
Flight info
| Callsign | TKJ3QP |
|---|---|
| Flight time | 1h 9m |
| Altitude | 35000 |
| Route | GOBIT1T/03L GOBIT UG8 MARTI UL614 SRT UW197 ABDIK |
| Aircraft | B738/M-SDE2E3FGHIRWXY/LB1 |
Departure
| Time | 2026-04-25 18:14 |
|---|---|
| Airport | Esenboğa International Airport (LTAC) |
Arrival
| Time | 2026-04-25 19:24 |
|---|---|
| Airport | Şırnak Şerafettin Elçi Airport (LTCV) |
| Time | Latitude | Longitude | Altitude | Speed | Heading |
|---|---|---|---|---|---|
| 2026-04-25 17:42 | 40.11630 | 32.99166 | 3137 ft | 0 kts | 151° |
| 2026-04-25 18:02 | 40.11636 | 32.99162 | 3137 ft | 2 kts | 152° |
| 2026-04-25 18:02 | 40.11649 | 32.99152 | 3137 ft | 2 kts | 151° |
| 2026-04-25 18:02 | 40.11663 | 32.99142 | 3137 ft | 2 kts | 152° |
| 2026-04-25 18:03 | 40.11676 | 32.99134 | 3137 ft | 2 kts | 175° |
| 2026-04-25 18:03 | 40.11691 | 32.99138 | 3137 ft | 2 kts | 214° |
| 2026-04-25 18:03 | 40.11698 | 32.99147 | 3137 ft | 0 kts | 239° |
| 2026-04-25 18:03 | 40.11700 | 32.99153 | 3137 ft | 1 kts | 244° |
| 2026-04-25 18:04 | 40.11701 | 32.99155 | 3137 ft | 0 kts | 243° |
| 2026-04-25 18:09 | 40.11700 | 32.99152 | 3136 ft | 1 kts | 242° |
| 2026-04-25 18:09 | 40.11689 | 32.99127 | 3136 ft | 4 kts | 238° |
| 2026-04-25 18:09 | 40.11673 | 32.99091 | 3136 ft | 4 kts | 239° |
| 2026-04-25 18:09 | 40.11664 | 32.99072 | 3135 ft | 3 kts | 237° |
| 2026-04-25 18:10 | 40.11647 | 32.99040 | 3135 ft | 3 kts | 233° |
| 2026-04-25 18:10 | 40.11634 | 32.99019 | 3134 ft | 2 kts | 231° |
| 2026-04-25 18:10 | 40.11626 | 32.98996 | 3134 ft | 2 kts | 252° |
| 2026-04-25 18:10 | 40.11623 | 32.98969 | 3133 ft | 2 kts | 272° |
| 2026-04-25 18:11 | 40.11629 | 32.98939 | 3133 ft | 3 kts | 297° |
| 2026-04-25 18:11 | 40.11647 | 32.98907 | 3132 ft | 8 kts | 308° |
| 2026-04-25 18:11 | 40.11700 | 32.98813 | 3130 ft | 16 kts | 306° |
| 2026-04-25 18:11 | 40.11775 | 32.98682 | 3127 ft | 16 kts | 306° |
| 2026-04-25 18:12 | 40.11837 | 32.98573 | 3126 ft | 13 kts | 306° |
| 2026-04-25 18:12 | 40.11872 | 32.98516 | 3126 ft | 4 kts | 322° |
| 2026-04-25 18:12 | 40.11894 | 32.98504 | 3126 ft | 2 kts | 348° |
| 2026-04-25 18:12 | 40.11906 | 32.98503 | 3126 ft | 2 kts | 1° |
| 2026-04-25 18:13 | 40.11919 | 32.98506 | 3126 ft | 1 kts | 18° |
| 2026-04-25 18:13 | 40.11940 | 32.98521 | 3126 ft | 5 kts | 35° |
| 2026-04-25 18:13 | 40.12095 | 32.98668 | 3127 ft | 63 kts | 36° |
| 2026-04-25 18:14 | 40.13540 | 33.00048 | 3158 ft | 184 kts | 38° |
| 2026-04-25 18:14 | 40.14500 | 33.00983 | 4110 ft | 166 kts | 40° |
| 2026-04-25 18:14 | 40.15435 | 33.01979 | 4672 ft | 181 kts | 41° |
| 2026-04-25 18:14 | 40.16403 | 33.03034 | 5232 ft | 188 kts | 41° |
| 2026-04-25 18:15 | 40.17438 | 33.04141 | 5701 ft | 200 kts | 40° |
| 2026-04-25 18:15 | 40.18563 | 33.05335 | 6120 ft | 217 kts | 40° |
| 2026-04-25 18:15 | 40.19671 | 33.06799 | 6527 ft | 237 kts | 57° |
| 2026-04-25 18:15 | 40.20314 | 33.08833 | 7038 ft | 250 kts | 83° |
| 2026-04-25 18:16 | 40.20242 | 33.11133 | 7602 ft | 261 kts | 104° |
| 2026-04-25 18:16 | 40.19511 | 33.13352 | 8084 ft | 276 kts | 124° |
| 2026-04-25 18:16 | 40.17061 | 33.17346 | 9547 ft | 288 kts | 130° |
| 2026-04-25 18:17 | 40.15784 | 33.19354 | 10296 ft | 293 kts | 130° |
| 2026-04-25 18:17 | 40.14461 | 33.21486 | 10786 ft | 308 kts | 129° |
| 2026-04-25 18:17 | 40.13097 | 33.23722 | 11236 ft | 324 kts | 129° |
| 2026-04-25 18:17 | 40.11669 | 33.26083 | 11670 ft | 340 kts | 128° |
| 2026-04-25 18:18 | 40.10155 | 33.28590 | 12081 ft | 357 kts | 128° |
| 2026-04-25 18:18 | 40.08609 | 33.31151 | 12663 ft | 367 kts | 128° |
| 2026-04-25 18:18 | 40.07024 | 33.33772 | 13349 ft | 373 kts | 129° |
| 2026-04-25 18:18 | 40.05397 | 33.36459 | 14097 ft | 378 kts | 129° |
| 2026-04-25 18:19 | 40.03771 | 33.39141 | 14836 ft | 382 kts | 129° |
| 2026-04-25 18:19 | 40.02130 | 33.41843 | 15569 ft | 386 kts | 129° |
| 2026-04-25 18:19 | 40.00482 | 33.44645 | 16284 ft | 390 kts | 126° |
| 2026-04-25 18:19 | 39.98933 | 33.47524 | 16991 ft | 394 kts | 124° |
| 2026-04-25 18:20 | 39.97404 | 33.50518 | 17642 ft | 398 kts | 123° |
| 2026-04-25 18:20 | 39.95898 | 33.53513 | 18285 ft | 402 kts | 123° |
| 2026-04-25 18:20 | 39.94340 | 33.56598 | 18970 ft | 406 kts | 124° |
| 2026-04-25 18:20 | 39.92779 | 33.59658 | 19559 ft | 411 kts | 124° |
| 2026-04-25 18:21 | 39.91212 | 33.62789 | 20181 ft | 415 kts | 121° |
| 2026-04-25 18:21 | 39.89965 | 33.66177 | 20794 ft | 420 kts | 111° |
| 2026-04-25 18:21 | 39.89111 | 33.69825 | 21362 ft | 425 kts | 105° |
| 2026-04-25 18:21 | 39.88476 | 33.73580 | 21935 ft | 429 kts | 102° |
| 2026-04-25 18:22 | 39.87909 | 33.77410 | 22468 ft | 433 kts | 102° |
| 2026-04-25 18:22 | 39.87532 | 33.79973 | 22801 ft | 437 kts | 102° |
| 2026-04-25 18:22 | 39.86727 | 33.85171 | 23521 ft | 441 kts | 103° |
| 2026-04-25 18:22 | 39.86079 | 33.89067 | 23974 ft | 447 kts | 104° |
| 2026-04-25 18:23 | 39.85385 | 33.93026 | 24535 ft | 449 kts | 104° |
| 2026-04-25 18:23 | 39.84668 | 33.96968 | 25088 ft | 451 kts | 105° |
| 2026-04-25 18:23 | 39.83927 | 34.00941 | 25571 ft | 455 kts | 105° |
| 2026-04-25 18:23 | 39.83173 | 34.04919 | 26091 ft | 458 kts | 105° |
| 2026-04-25 18:24 | 39.82408 | 34.08922 | 26570 ft | 461 kts | 106° |
| 2026-04-25 18:24 | 39.81631 | 34.12963 | 27044 ft | 464 kts | 106° |
| 2026-04-25 18:24 | 39.80842 | 34.17051 | 27506 ft | 468 kts | 106° |
| 2026-04-25 18:24 | 39.80050 | 34.21144 | 27930 ft | 471 kts | 106° |
| 2026-04-25 18:25 | 39.79250 | 34.25274 | 28402 ft | 474 kts | 106° |
| 2026-04-25 18:25 | 39.78441 | 34.29439 | 28817 ft | 477 kts | 106° |
| 2026-04-25 18:25 | 39.77636 | 34.33578 | 29432 ft | 475 kts | 106° |
| 2026-04-25 18:25 | 39.76828 | 34.37736 | 30120 ft | 472 kts | 107° |
| 2026-04-25 18:26 | 39.76032 | 34.41827 | 30753 ft | 469 kts | 107° |
| 2026-04-25 18:26 | 39.75232 | 34.45925 | 31213 ft | 470 kts | 107° |
| 2026-04-25 18:26 | 39.74422 | 34.50058 | 31641 ft | 470 kts | 107° |
| 2026-04-25 18:26 | 39.73617 | 34.54156 | 32097 ft | 470 kts | 106° |
| 2026-04-25 18:27 | 39.72806 | 34.58281 | 32611 ft | 468 kts | 106° |
| 2026-04-25 18:27 | 39.71997 | 34.62382 | 33068 ft | 467 kts | 106° |
| 2026-04-25 18:27 | 39.71181 | 34.66519 | 33481 ft | 467 kts | 107° |
| 2026-04-25 18:27 | 39.70380 | 34.70562 | 33842 ft | 467 kts | 107° |
| 2026-04-25 18:28 | 39.69574 | 34.74622 | 34249 ft | 466 kts | 107° |
| 2026-04-25 18:28 | 39.68767 | 34.78682 | 34611 ft | 466 kts | 107° |
| 2026-04-25 18:28 | 39.67953 | 34.82774 | 34893 ft | 467 kts | 107° |
| 2026-04-25 18:29 | 39.66307 | 34.91011 | 35090 ft | 470 kts | 107° |
| 2026-04-25 18:29 | 39.65484 | 34.95121 | 35089 ft | 467 kts | 107° |
| 2026-04-25 18:30 | 39.62207 | 35.11415 | 35089 ft | 467 kts | 107° |
| 2026-04-25 18:30 | 39.60553 | 35.19581 | 35091 ft | 477 kts | 107° |
| 2026-04-25 18:31 | 39.58853 | 35.27938 | 35089 ft | 478 kts | 107° |
| 2026-04-25 18:31 | 39.57167 | 35.36210 | 35089 ft | 477 kts | 106° |
| 2026-04-25 18:32 | 39.55462 | 35.44540 | 35094 ft | 478 kts | 106° |
| 2026-04-25 18:32 | 39.53762 | 35.52809 | 35094 ft | 478 kts | 107° |
| 2026-04-25 18:33 | 39.52047 | 35.61118 | 35092 ft | 478 kts | 107° |
| 2026-04-25 18:33 | 39.50338 | 35.69362 | 35112 ft | 477 kts | 107° |
| 2026-04-25 18:34 | 39.48602 | 35.77701 | 35110 ft | 477 kts | 107° |
| 2026-04-25 18:34 | 39.46879 | 35.85947 | 35116 ft | 478 kts | 107° |
| 2026-04-25 18:35 | 39.45142 | 35.94226 | 35123 ft | 477 kts | 107° |
| 2026-04-25 18:35 | 39.43407 | 36.02465 | 35127 ft | 477 kts | 107° |
| 2026-04-25 18:36 | 39.41664 | 36.10712 | 35124 ft | 477 kts | 107° |
| 2026-04-25 18:36 | 39.39910 | 36.18982 | 35132 ft | 478 kts | 107° |
| 2026-04-25 18:37 | 39.38145 | 36.27263 | 35131 ft | 478 kts | 107° |
| 2026-04-25 18:37 | 39.36387 | 36.35489 | 35131 ft | 478 kts | 108° |
| 2026-04-25 18:38 | 39.34605 | 36.43796 | 35134 ft | 477 kts | 107° |
| 2026-04-25 18:38 | 39.32825 | 36.52056 | 35130 ft | 478 kts | 108° |
| 2026-04-25 18:39 | 39.31036 | 36.60326 | 35145 ft | 478 kts | 108° |
| 2026-04-25 18:39 | 39.29269 | 36.68468 | 35140 ft | 476 kts | 108° |
| 2026-04-25 18:40 | 39.27476 | 36.76697 | 35139 ft | 477 kts | 108° |
| 2026-04-25 18:40 | 39.25683 | 36.84895 | 35148 ft | 476 kts | 108° |
| 2026-04-25 18:41 | 39.23882 | 36.93116 | 35144 ft | 477 kts | 108° |
| 2026-04-25 18:41 | 39.22068 | 37.01369 | 35144 ft | 479 kts | 108° |
| 2026-04-25 18:42 | 39.20546 | 37.08245 | 35157 ft | 479 kts | 109° |
| 2026-04-25 18:42 | 39.18411 | 37.17852 | 35149 ft | 477 kts | 109° |
| 2026-04-25 18:43 | 39.16570 | 37.26106 | 35153 ft | 477 kts | 109° |
| 2026-04-25 18:43 | 39.14740 | 37.34280 | 35151 ft | 478 kts | 109° |
| 2026-04-25 18:44 | 39.12898 | 37.42491 | 35163 ft | 478 kts | 109° |
| 2026-04-25 18:44 | 39.11053 | 37.50680 | 35155 ft | 477 kts | 109° |
| 2026-04-25 18:45 | 39.09199 | 37.58880 | 35160 ft | 480 kts | 109° |
| 2026-04-25 18:45 | 39.07335 | 37.67096 | 35161 ft | 478 kts | 109° |
| 2026-04-25 18:46 | 39.06408 | 37.71171 | 34954 ft | 478 kts | 110° |
| 2026-04-25 18:46 | 39.05465 | 37.75302 | 34731 ft | 479 kts | 110° |
| 2026-04-25 18:46 | 39.04537 | 37.79363 | 34509 ft | 480 kts | 110° |
| 2026-04-25 18:46 | 39.03587 | 37.83515 | 34269 ft | 480 kts | 110° |
| 2026-04-25 18:47 | 39.02659 | 37.87568 | 34013 ft | 480 kts | 110° |
| 2026-04-25 18:47 | 39.01707 | 37.91716 | 33758 ft | 479 kts | 110° |
| 2026-04-25 18:47 | 39.00771 | 37.95789 | 33507 ft | 480 kts | 110° |
| 2026-04-25 18:47 | 38.99816 | 37.99933 | 33252 ft | 481 kts | 110° |
| 2026-04-25 18:48 | 38.98867 | 38.04045 | 32990 ft | 481 kts | 110° |
| 2026-04-25 18:48 | 38.97915 | 38.08161 | 32737 ft | 481 kts | 110° |
| 2026-04-25 18:48 | 38.96967 | 38.12254 | 32473 ft | 481 kts | 110° |
| 2026-04-25 18:48 | 38.96013 | 38.16364 | 32225 ft | 482 kts | 110° |
| 2026-04-25 18:49 | 38.95050 | 38.20505 | 31963 ft | 482 kts | 110° |
| 2026-04-25 18:49 | 38.94098 | 38.24593 | 31705 ft | 484 kts | 110° |
| 2026-04-25 18:49 | 38.93136 | 38.28721 | 31447 ft | 484 kts | 110° |
| 2026-04-25 18:49 | 38.92169 | 38.32866 | 31188 ft | 484 kts | 110° |
| 2026-04-25 18:50 | 38.91201 | 38.37007 | 30924 ft | 484 kts | 110° |
| 2026-04-25 18:50 | 38.90245 | 38.41093 | 30669 ft | 485 kts | 110° |
| 2026-04-25 18:50 | 38.89274 | 38.45231 | 30410 ft | 486 kts | 110° |
| 2026-04-25 18:50 | 38.88298 | 38.49379 | 30138 ft | 486 kts | 110° |
| 2026-04-25 18:51 | 38.87329 | 38.53492 | 29862 ft | 486 kts | 109° |
| 2026-04-25 18:51 | 38.86684 | 38.56226 | 29679 ft | 487 kts | 110° |
| 2026-04-25 18:51 | 38.85365 | 38.61808 | 29300 ft | 488 kts | 109° |
| 2026-04-25 18:51 | 38.84383 | 38.65953 | 29123 ft | 486 kts | 110° |
| 2026-04-25 18:52 | 38.82408 | 38.74268 | 29121 ft | 490 kts | 110° |
| 2026-04-25 18:52 | 38.80423 | 38.82590 | 29125 ft | 492 kts | 110° |
| 2026-04-25 18:53 | 38.78418 | 38.90964 | 29120 ft | 491 kts | 110° |
| 2026-04-25 18:53 | 38.76425 | 38.99254 | 29114 ft | 490 kts | 110° |
| 2026-04-25 18:54 | 38.73409 | 39.11740 | 29103 ft | 491 kts | 110° |
| 2026-04-25 18:55 | 38.71392 | 39.20057 | 29096 ft | 493 kts | 110° |
| 2026-04-25 18:55 | 38.69247 | 39.28418 | 29089 ft | 491 kts | 112° |
| 2026-04-25 18:56 | 38.66866 | 39.36585 | 29077 ft | 490 kts | 114° |
| 2026-04-25 18:56 | 38.64426 | 39.44695 | 29095 ft | 491 kts | 114° |
| 2026-04-25 18:57 | 38.61991 | 39.52819 | 29115 ft | 491 kts | 114° |
| 2026-04-25 18:57 | 38.59586 | 39.61021 | 29119 ft | 493 kts | 114° |
| 2026-04-25 18:58 | 38.57236 | 39.69152 | 29126 ft | 492 kts | 114° |
| 2026-04-25 18:58 | 38.53712 | 39.81356 | 29123 ft | 494 kts | 114° |
| 2026-04-25 18:59 | 38.48920 | 39.97826 | 28610 ft | 495 kts | 114° |
| 2026-04-25 19:00 | 38.46520 | 40.06025 | 28074 ft | 496 kts | 114° |
| 2026-04-25 19:00 | 38.45312 | 40.10149 | 27810 ft | 497 kts | 114° |
| 2026-04-25 19:01 | 38.42902 | 40.18351 | 27285 ft | 495 kts | 114° |
| 2026-04-25 19:01 | 38.41695 | 40.22456 | 27023 ft | 492 kts | 114° |
| 2026-04-25 19:01 | 38.40477 | 40.26586 | 26759 ft | 493 kts | 114° |
| 2026-04-25 19:01 | 38.39284 | 40.30622 | 26504 ft | 494 kts | 114° |
| 2026-04-25 19:02 | 38.36858 | 40.38807 | 25978 ft | 495 kts | 113° |
| 2026-04-25 19:02 | 38.35644 | 40.42894 | 25717 ft | 494 kts | 114° |
| 2026-04-25 19:02 | 38.34436 | 40.46956 | 25461 ft | 490 kts | 113° |
| 2026-04-25 19:03 | 38.32427 | 40.53702 | 25029 ft | 491 kts | 113° |
| 2026-04-25 19:03 | 38.30817 | 40.59099 | 24679 ft | 492 kts | 113° |
| 2026-04-25 19:03 | 38.29602 | 40.63163 | 24412 ft | 493 kts | 113° |
| 2026-04-25 19:04 | 38.27178 | 40.71258 | 23883 ft | 492 kts | 113° |
| 2026-04-25 19:04 | 38.25951 | 40.75348 | 23617 ft | 493 kts | 113° |
| 2026-04-25 19:05 | 38.23503 | 40.83470 | 23094 ft | 492 kts | 113° |
| 2026-04-25 19:05 | 38.21031 | 40.91503 | 22571 ft | 486 kts | 113° |
| 2026-04-25 19:05 | 38.19825 | 40.95379 | 22331 ft | 468 kts | 113° |
| 2026-04-25 19:06 | 38.18632 | 40.99196 | 22067 ft | 459 kts | 113° |
| 2026-04-25 19:06 | 38.16279 | 41.06698 | 21557 ft | 457 kts | 113° |
| 2026-04-25 19:06 | 38.15129 | 41.10360 | 21296 ft | 448 kts | 113° |
| 2026-04-25 19:07 | 38.12857 | 41.17646 | 21065 ft | 447 kts | 113° |
| 2026-04-25 19:07 | 38.11718 | 41.21354 | 21071 ft | 449 kts | 113° |
| 2026-04-25 19:08 | 38.09468 | 41.28714 | 20775 ft | 447 kts | 112° |
| 2026-04-25 19:08 | 38.08351 | 41.32368 | 20510 ft | 441 kts | 112° |
| 2026-04-25 19:09 | 38.05081 | 41.43039 | 19712 ft | 422 kts | 112° |
| 2026-04-25 19:09 | 38.04382 | 41.45312 | 19543 ft | 422 kts | 112° |
| 2026-04-25 19:09 | 38.01917 | 41.53301 | 18948 ft | 408 kts | 112° |
| 2026-04-25 19:10 | 38.00890 | 41.56616 | 18688 ft | 407 kts | 112° |
| 2026-04-25 19:10 | 37.99853 | 41.59954 | 18428 ft | 405 kts | 112° |
| 2026-04-25 19:10 | 37.98835 | 41.63235 | 18184 ft | 404 kts | 112° |
| 2026-04-25 19:10 | 37.97803 | 41.66561 | 17932 ft | 403 kts | 112° |
| 2026-04-25 19:11 | 37.96777 | 41.69864 | 17665 ft | 401 kts | 112° |
| 2026-04-25 19:11 | 37.95770 | 41.73108 | 17414 ft | 386 kts | 113° |
| 2026-04-25 19:11 | 37.94809 | 41.76208 | 16986 ft | 369 kts | 113° |
| 2026-04-25 19:11 | 37.93678 | 41.79067 | 16528 ft | 358 kts | 127° |
| 2026-04-25 19:12 | 37.91991 | 41.81278 | 15780 ft | 349 kts | 148° |
| 2026-04-25 19:12 | 37.89948 | 41.82735 | 15345 ft | 332 kts | 157° |
| 2026-04-25 19:12 | 37.87866 | 41.83980 | 14960 ft | 317 kts | 158° |
| 2026-04-25 19:12 | 37.85905 | 41.85123 | 14607 ft | 304 kts | 158° |
| 2026-04-25 19:13 | 37.84007 | 41.86241 | 14046 ft | 300 kts | 158° |
| 2026-04-25 19:13 | 37.82137 | 41.87360 | 13445 ft | 298 kts | 158° |
| 2026-04-25 19:13 | 37.80298 | 41.88477 | 12863 ft | 295 kts | 157° |
| 2026-04-25 19:13 | 37.78442 | 41.89607 | 12304 ft | 292 kts | 159° |
| 2026-04-25 19:14 | 37.76521 | 41.90199 | 11744 ft | 287 kts | 184° |
| 2026-04-25 19:14 | 37.75235 | 41.89966 | 11372 ft | 282 kts | 198° |
| 2026-04-25 19:14 | 37.72800 | 41.88851 | 10581 ft | 279 kts | 200° |
| 2026-04-25 19:14 | 37.70959 | 41.88132 | 10007 ft | 277 kts | 195° |
| 2026-04-25 19:15 | 37.69082 | 41.87528 | 9364 ft | 278 kts | 194° |
| 2026-04-25 19:15 | 37.67202 | 41.86929 | 8522 ft | 286 kts | 194° |
| 2026-04-25 19:15 | 37.65268 | 41.86282 | 7828 ft | 286 kts | 195° |
| 2026-04-25 19:15 | 37.63394 | 41.85630 | 7325 ft | 280 kts | 195° |
| 2026-04-25 19:16 | 37.61522 | 41.84966 | 6879 ft | 272 kts | 194° |
| 2026-04-25 19:16 | 37.59737 | 41.84328 | 6470 ft | 265 kts | 194° |
| 2026-04-25 19:16 | 37.58003 | 41.83710 | 6192 ft | 253 kts | 194° |
| 2026-04-25 19:16 | 37.56348 | 41.83123 | 5947 ft | 242 kts | 194° |
| 2026-04-25 19:17 | 37.54756 | 41.82560 | 5709 ft | 232 kts | 194° |
| 2026-04-25 19:17 | 37.53227 | 41.82019 | 5477 ft | 220 kts | 194° |
| 2026-04-25 19:17 | 37.51781 | 41.81507 | 5225 ft | 211 kts | 194° |
| 2026-04-25 19:17 | 37.50402 | 41.81020 | 4978 ft | 204 kts | 193° |
| 2026-04-25 19:18 | 37.49051 | 41.80545 | 4791 ft | 195 kts | 193° |
| 2026-04-25 19:18 | 37.47767 | 41.80272 | 4690 ft | 186 kts | 175° |
| 2026-04-25 19:18 | 37.46560 | 41.80750 | 4654 ft | 181 kts | 141° |
| 2026-04-25 19:18 | 37.45730 | 41.81914 | 4610 ft | 180 kts | 122° |
| 2026-04-25 19:19 | 37.45096 | 41.83264 | 4559 ft | 178 kts | 117° |
| 2026-04-25 19:19 | 37.44528 | 41.84661 | 4518 ft | 178 kts | 116° |
| 2026-04-25 19:19 | 37.44000 | 41.86036 | 4482 ft | 169 kts | 115° |
| 2026-04-25 19:19 | 37.43664 | 41.86919 | 4469 ft | 169 kts | 115° |
| 2026-04-25 19:20 | 37.42987 | 41.88701 | 4443 ft | 168 kts | 115° |
| 2026-04-25 19:20 | 37.42486 | 41.90022 | 4437 ft | 164 kts | 115° |
| 2026-04-25 19:20 | 37.41991 | 41.91322 | 4343 ft | 166 kts | 115° |
| 2026-04-25 19:20 | 37.41490 | 41.92642 | 4046 ft | 166 kts | 115° |
| 2026-04-25 19:21 | 37.41014 | 41.93899 | 3812 ft | 150 kts | 115° |
| 2026-04-25 19:21 | 37.40141 | 41.96187 | 3470 ft | 145 kts | 115° |
| 2026-04-25 19:21 | 37.39714 | 41.97310 | 3246 ft | 141 kts | 115° |
| 2026-04-25 19:22 | 37.39289 | 41.98424 | 3105 ft | 143 kts | 115° |
| 2026-04-25 19:22 | 37.38843 | 41.99564 | 2977 ft | 146 kts | 114° |
| 2026-04-25 19:22 | 37.37993 | 42.01856 | 2499 ft | 142 kts | 117° |
| 2026-04-25 19:23 | 37.37556 | 42.02999 | 2326 ft | 147 kts | 116° |
| 2026-04-25 19:23 | 37.36723 | 42.05174 | 2060 ft | 104 kts | 114° |
| 2026-04-25 19:23 | 37.36488 | 42.05794 | 2055 ft | 55 kts | 115° |
| 2026-04-25 19:24 | 37.36389 | 42.06053 | 2052 ft | 14 kts | 115° |
| 2026-04-25 19:24 | 37.36383 | 42.06068 | 2052 ft | 0 kts | 115° |
| 2026-04-25 19:24 | 37.36377 | 42.06086 | 2052 ft | 2 kts | 108° |
| 2026-04-25 19:25 | 37.36371 | 42.06106 | 2052 ft | 0 kts | 171° |
| 2026-04-25 19:25 | 37.36369 | 42.06105 | 2052 ft | 0 kts | 196° |
| 2026-04-25 19:25 | 37.36367 | 42.06101 | 2052 ft | 1 kts | 257° |
| 2026-04-25 19:26 | 37.36374 | 42.06084 | 2052 ft | 3 kts | 302° |
| 2026-04-25 19:26 | 37.36389 | 42.06051 | 2052 ft | 3 kts | 289° |
| 2026-04-25 19:26 | 37.36389 | 42.06030 | 2052 ft | 1 kts | 260° |
| 2026-04-25 19:26 | 37.36385 | 42.06015 | 2053 ft | 2 kts | 245° |
| 2026-04-25 19:27 | 37.36379 | 42.06001 | 2053 ft | 1 kts | 238° |
| 2026-04-25 19:27 | 37.36373 | 42.05991 | 2053 ft | 1 kts | 231° |
| 2026-04-25 19:27 | 37.36335 | 42.05964 | 2053 ft | 10 kts | 205° |
| 2026-04-25 19:27 | 37.36282 | 42.05933 | 2054 ft | 6 kts | 206° |
| 2026-04-25 19:28 | 37.36256 | 42.05916 | 2054 ft | 2 kts | 206° |
| 2026-04-25 19:28 | 37.36232 | 42.05902 | 2055 ft | 6 kts | 204° |
| 2026-04-25 19:28 | 37.36202 | 42.05885 | 2056 ft | 2 kts | 204° |
| 2026-04-25 19:28 | 37.36194 | 42.05880 | 2056 ft | 1 kts | 206° |
| 2026-04-25 19:29 | 37.36187 | 42.05873 | 2056 ft | 1 kts | 225° |
| 2026-04-25 19:29 | 37.36180 | 42.05857 | 2057 ft | 2 kts | 245° |
| 2026-04-25 19:29 | 37.36178 | 42.05846 | 2057 ft | 1 kts | 266° |
| 2026-04-25 19:29 | 37.36176 | 42.05830 | 2057 ft | 1 kts | 249° |
| 2026-04-25 19:30 | 37.36174 | 42.05828 | 2058 ft | 0 kts | 225° |
| 2026-04-25 19:30 | 37.36171 | 42.05825 | 2058 ft | 1 kts | 209° |
| 2026-04-25 19:30 | 37.36163 | 42.05820 | 2059 ft | 1 kts | 209° |
| 2026-04-25 19:30 | 37.36167 | 42.05823 | 2058 ft | 1 kts | 208° |
| 2026-04-25 19:31 | 37.36151 | 42.05804 | 2062 ft | 3 kts | 234° |
| 2026-04-25 19:31 | 37.36141 | 42.05779 | 2063 ft | 3 kts | 248° |
| 2026-04-25 19:31 | 37.36140 | 42.05777 | 2064 ft | 0 kts | 248° |